sensor_id;sensor_type;location;lat;lon;timestamp;P1;durP1;ratioP1;P2;durP2;ratioP2
13114;SDS011;6623;52.120;8.660;2023-08-17T00:01:30;0.88;;;0.70;;
13114;SDS011;6623;52.120;8.660;2023-08-17T00:03:56;0.68;;;0.60;;
13114;SDS011;6623;52.120;8.660;2023-08-17T00:06:21;0.60;;;0.60;;
13114;SDS011;6623;52.120;8.660;2023-08-17T00:08:47;0.75;;;0.60;;
13114;SDS011;6623;52.120;8.660;2023-08-17T00:11:12;0.82;;;0.60;;
13114;SDS011;6623;52.120;8.660;2023-08-17T00:13:38;0.70;;;0.68;;
13114;SDS011;6623;52.120;8.660;2023-08-17T00:16:04;0.60;;;0.60;;
13114;SDS011;6623;52.120;8.660;2023-08-17T00:18:30;0.60;;;0.60;;
13114;SDS011;6623;52.120;8.660;2023-08-17T00:20:55;0.50;;;0.50;;
13114;SDS011;6623;52.120;8.660;2023-08-17T00:23:21;0.50;;;0.50;;
13114;SDS011;6623;52.120;8.660;2023-08-17T00:25:47;0.73;;;0.63;;
13114;SDS011;6623;52.120;8.660;2023-08-17T00:28:13;0.50;;;0.50;;
13114;SDS011;6623;52.120;8.660;2023-08-17T00:30:39;0.50;;;0.50;;
13114;SDS011;6623;52.120;8.660;2023-08-17T00:33:04;0.60;;;0.60;;
13114;SDS011;6623;52.120;8.660;2023-08-17T00:35:30;0.88;;;0.60;;
13114;SDS011;6623;52.120;8.660;2023-08-17T00:37:57;0.93;;;0.52;;
13114;SDS011;6623;52.120;8.660;2023-08-17T00:40:23;0.50;;;0.50;;
13114;SDS011;6623;52.120;8.660;2023-08-17T00:42:48;0.57;;;0.57;;
13114;SDS011;6623;52.120;8.660;2023-08-17T00:45:14;0.65;;;0.60;;
13114;SDS011;6623;52.120;8.660;2023-08-17T00:47:40;0.70;;;0.60;;
13114;SDS011;6623;52.120;8.660;2023-08-17T00:50:09;0.57;;;0.57;;
13114;SDS011;6623;52.120;8.660;2023-08-17T00:52:36;0.70;;;0.70;;
13114;SDS011;6623;52.120;8.660;2023-08-17T00:55:03;0.70;;;0.70;;
13114;SDS011;6623;52.120;8.660;2023-08-17T00:57:30;0.60;;;0.60;;
13114;SDS011;6623;52.120;8.660;2023-08-17T00:59:58;0.70;;;0.70;;
13114;SDS011;6623;52.120;8.660;2023-08-17T01:02:24;0.70;;;0.70;;
13114;SDS011;6623;52.120;8.660;2023-08-17T01:04:50;0.40;;;0.40;;
13114;SDS011;6623;52.120;8.660;2023-08-17T01:07:15;0.55;;;0.55;;
13114;SDS011;6623;52.120;8.660;2023-08-17T01:09:41;0.68;;;0.68;;
13114;SDS011;6623;52.120;8.660;2023-08-17T01:12:17;0.70;;;0.70;;
13114;SDS011;6623;52.120;8.660;2023-08-17T01:17:26;0.68;;;0.68;;
13114;SDS011;6623;52.120;8.660;2023-08-17T01:19:57;0.70;;;0.70;;
13114;SDS011;6623;52.120;8.660;2023-08-17T01:22:24;0.63;;;0.63;;
13114;SDS011;6623;52.120;8.660;2023-08-17T01:24:54;0.70;;;0.70;;
13114;SDS011;6623;52.120;8.660;2023-08-17T01:27:22;0.60;;;0.60;;
13114;SDS011;6623;52.120;8.660;2023-08-17T01:29:49;0.50;;;0.50;;
13114;SDS011;6623;52.120;8.660;2023-08-17T01:32:30;0.73;;;0.60;;
13114;SDS011;6623;52.120;8.660;2023-08-17T01:35:06;0.85;;;0.70;;
13114;SDS011;6623;52.120;8.660;2023-08-17T01:37:50;0.50;;;0.50;;
13114;SDS011;6623;52.120;8.660;2023-08-17T01:40:20;0.50;;;0.50;;
13114;SDS011;6623;52.120;8.660;2023-08-17T01:42:47;0.60;;;0.60;;
13114;SDS011;6623;52.120;8.660;2023-08-17T01:45:15;0.55;;;0.55;;
13114;SDS011;6623;52.120;8.660;2023-08-17T01:47:42;0.50;;;0.50;;
13114;SDS011;6623;52.120;8.660;2023-08-17T01:50:07;0.70;;;0.70;;
13114;SDS011;6623;52.120;8.660;2023-08-17T01:52:33;0.50;;;0.50;;
13114;SDS011;6623;52.120;8.660;2023-08-17T01:55:00;0.50;;;0.50;;
13114;SDS011;6623;52.120;8.660;2023-08-17T01:57:25;0.50;;;0.50;;
13114;SDS011;6623;52.120;8.660;2023-08-17T01:59:51;0.77;;;0.77;;
13114;SDS011;6623;52.120;8.660;2023-08-17T02:02:16;0.40;;;0.40;;
13114;SDS011;6623;52.120;8.660;2023-08-17T02:04:42;0.63;;;0.63;;
13114;SDS011;6623;52.120;8.660;2023-08-17T02:07:07;0.52;;;0.52;;
13114;SDS011;6623;52.120;8.660;2023-08-17T02:09:33;0.60;;;0.60;;
13114;SDS011;6623;52.120;8.660;2023-08-17T02:11:58;0.60;;;0.60;;
13114;SDS011;6623;52.120;8.660;2023-08-17T02:14:24;1.10;;;0.65;;
13114;SDS011;6623;52.120;8.660;2023-08-17T02:16:49;1.48;;;0.70;;
13114;SDS011;6623;52.120;8.660;2023-08-17T02:19:15;0.70;;;0.60;;
13114;SDS011;6623;52.120;8.660;2023-08-17T02:21:40;0.50;;;0.50;;
13114;SDS011;6623;52.120;8.660;2023-08-17T02:24:06;0.52;;;0.50;;
13114;SDS011;6623;52.120;8.660;2023-08-17T02:26:32;0.50;;;0.50;;
13114;SDS011;6623;52.120;8.660;2023-08-17T02:28:57;0.70;;;0.70;;
13114;SDS011;6623;52.120;8.660;2023-08-17T02:31:23;0.60;;;0.60;;
13114;SDS011;6623;52.120;8.660;2023-08-17T02:33:48;0.60;;;0.60;;
13114;SDS011;6623;52.120;8.660;2023-08-17T02:36:14;0.60;;;0.60;;
13114;SDS011;6623;52.120;8.660;2023-08-17T02:38:40;0.50;;;0.50;;
13114;SDS011;6623;52.120;8.660;2023-08-17T02:41:05;0.60;;;0.60;;
13114;SDS011;6623;52.120;8.660;2023-08-17T02:43:31;0.60;;;0.60;;
13114;SDS011;6623;52.120;8.660;2023-08-17T02:45:56;0.60;;;0.60;;
13114;SDS011;6623;52.120;8.660;2023-08-17T02:48:22;0.57;;;0.57;;
13114;SDS011;6623;52.120;8.660;2023-08-17T02:50:48;0.70;;;0.70;;
13114;SDS011;6623;52.120;8.660;2023-08-17T02:53:13;0.50;;;0.50;;
13114;SDS011;6623;52.120;8.660;2023-08-17T02:55:39;0.60;;;0.60;;
13114;SDS011;6623;52.120;8.660;2023-08-17T02:58:04;0.50;;;0.50;;
13114;SDS011;6623;52.120;8.660;2023-08-17T03:00:30;0.55;;;0.55;;
13114;SDS011;6623;52.120;8.660;2023-08-17T03:02:55;0.85;;;0.70;;
13114;SDS011;6623;52.120;8.660;2023-08-17T03:05:21;0.60;;;0.60;;
13114;SDS011;6623;52.120;8.660;2023-08-17T03:07:46;0.40;;;0.40;;
13114;SDS011;6623;52.120;8.660;2023-08-17T03:10:12;0.60;;;0.60;;
13114;SDS011;6623;52.120;8.660;2023-08-17T03:12:38;0.63;;;0.60;;
13114;SDS011;6623;52.120;8.660;2023-08-17T03:15:04;0.60;;;0.60;;
13114;SDS011;6623;52.120;8.660;2023-08-17T03:17:31;0.50;;;0.50;;
13114;SDS011;6623;52.120;8.660;2023-08-17T03:19:56;0.70;;;0.70;;
13114;SDS011;6623;52.120;8.660;2023-08-17T03:22:24;0.65;;;0.65;;
13114;SDS011;6623;52.120;8.660;2023-08-17T03:24:50;0.60;;;0.60;;
13114;SDS011;6623;52.120;8.660;2023-08-17T03:27:15;0.60;;;0.60;;
13114;SDS011;6623;52.120;8.660;2023-08-17T03:29:41;0.57;;;0.57;;
13114;SDS011;6623;52.120;8.660;2023-08-17T03:32:06;0.50;;;0.50;;
13114;SDS011;6623;52.120;8.660;2023-08-17T03:34:32;0.82;;;0.73;;
13114;SDS011;6623;52.120;8.660;2023-08-17T03:36:57;0.50;;;0.50;;
13114;SDS011;6623;52.120;8.660;2023-08-17T03:39:23;0.50;;;0.50;;
13114;SDS011;6623;52.120;8.660;2023-08-17T03:41:48;0.60;;;0.60;;
13114;SDS011;6623;52.120;8.660;2023-08-17T03:44:14;0.60;;;0.60;;
13114;SDS011;6623;52.120;8.660;2023-08-17T03:46:40;0.60;;;0.60;;
13114;SDS011;6623;52.120;8.660;2023-08-17T03:49:06;0.65;;;0.57;;
13114;SDS011;6623;52.120;8.660;2023-08-17T03:51:31;0.50;;;0.50;;
13114;SDS011;6623;52.120;8.660;2023-08-17T03:53:57;0.50;;;0.50;;
13114;SDS011;6623;52.120;8.660;2023-08-17T03:56:22;0.60;;;0.60;;
13114;SDS011;6623;52.120;8.660;2023-08-17T03:58:48;0.50;;;0.50;;
13114;SDS011;6623;52.120;8.660;2023-08-17T04:01:13;0.52;;;0.52;;
13114;SDS011;6623;52.120;8.660;2023-08-17T04:03:39;0.70;;;0.70;;
13114;SDS011;6623;52.120;8.660;2023-08-17T04:06:05;0.70;;;0.70;;
13114;SDS011;6623;52.120;8.660;2023-08-17T04:08:31;0.50;;;0.50;;
13114;SDS011;6623;52.120;8.660;2023-08-17T04:10:57;0.50;;;0.50;;
13114;SDS011;6623;52.120;8.660;2023-08-17T04:13:22;0.50;;;0.50;;
13114;SDS011;6623;52.120;8.660;2023-08-17T04:15:48;0.65;;;0.65;;
13114;SDS011;6623;52.120;8.660;2023-08-17T04:18:13;0.80;;;0.70;;
13114;SDS011;6623;52.120;8.660;2023-08-17T04:20:39;0.60;;;0.60;;
13114;SDS011;6623;52.120;8.660;2023-08-17T04:23:05;0.40;;;0.40;;
13114;SDS011;6623;52.120;8.660;2023-08-17T04:25:30;1.05;;;0.50;;
13114;SDS011;6623;52.120;8.660;2023-08-17T04:27:56;0.50;;;0.50;;
13114;SDS011;6623;52.120;8.660;2023-08-17T04:30:21;0.77;;;0.60;;
13114;SDS011;6623;52.120;8.660;2023-08-17T04:32:47;0.40;;;0.40;;
13114;SDS011;6623;52.120;8.660;2023-08-17T04:35:17;0.70;;;0.50;;
13114;SDS011;6623;52.120;8.660;2023-08-17T04:37:43;0.73;;;0.73;;
13114;SDS011;6623;52.120;8.660;2023-08-17T04:40:09;0.50;;;0.50;;
13114;SDS011;6623;52.120;8.660;2023-08-17T04:42:35;0.65;;;0.57;;
13114;SDS011;6623;52.120;8.660;2023-08-17T04:45:01;0.50;;;0.50;;
13114;SDS011;6623;52.120;8.660;2023-08-17T04:47:27;0.60;;;0.60;;
13114;SDS011;6623;52.120;8.660;2023-08-17T04:49:52;0.60;;;0.50;;
13114;SDS011;6623;52.120;8.660;2023-08-17T04:52:18;0.60;;;0.60;;
13114;SDS011;6623;52.120;8.660;2023-08-17T04:54:43;0.60;;;0.60;;
13114;SDS011;6623;52.120;8.660;2023-08-17T04:57:09;0.63;;;0.60;;
13114;SDS011;6623;52.120;8.660;2023-08-17T04:59:35;0.60;;;0.60;;
13114;SDS011;6623;52.120;8.660;2023-08-17T05:02:01;0.63;;;0.60;;
13114;SDS011;6623;52.120;8.660;2023-08-17T05:04:27;0.57;;;0.57;;
13114;SDS011;6623;52.120;8.660;2023-08-17T05:06:55;0.70;;;0.70;;
13114;SDS011;6623;52.120;8.660;2023-08-17T05:09:20;0.60;;;0.50;;
13114;SDS011;6623;52.120;8.660;2023-08-17T05:11:46;0.50;;;0.50;;
13114;SDS011;6623;52.120;8.660;2023-08-17T05:14:14;0.63;;;0.63;;
13114;SDS011;6623;52.120;8.660;2023-08-17T05:16:40;0.52;;;0.50;;
13114;SDS011;6623;52.120;8.660;2023-08-17T05:19:05;0.68;;;0.50;;
13114;SDS011;6623;52.120;8.660;2023-08-17T05:21:31;0.68;;;0.60;;
13114;SDS011;6623;52.120;8.660;2023-08-17T05:23:56;0.75;;;0.68;;
13114;SDS011;6623;52.120;8.660;2023-08-17T05:26:22;0.60;;;0.60;;
13114;SDS011;6623;52.120;8.660;2023-08-17T05:28:47;0.60;;;0.60;;
13114;SDS011;6623;52.120;8.660;2023-08-17T05:31:13;0.70;;;0.60;;
13114;SDS011;6623;52.120;8.660;2023-08-17T05:33:39;0.60;;;0.60;;
13114;SDS011;6623;52.120;8.660;2023-08-17T05:36:06;0.50;;;0.50;;
13114;SDS011;6623;52.120;8.660;2023-08-17T05:38:32;0.70;;;0.50;;
13114;SDS011;6623;52.120;8.660;2023-08-17T05:40:58;0.65;;;0.60;;
13114;SDS011;6623;52.120;8.660;2023-08-17T05:43:24;0.50;;;0.50;;
13114;SDS011;6623;52.120;8.660;2023-08-17T05:45:50;0.50;;;0.50;;
13114;SDS011;6623;52.120;8.660;2023-08-17T05:48:18;0.70;;;0.50;;
13114;SDS011;6623;52.120;8.660;2023-08-17T05:50:45;0.45;;;0.45;;
13114;SDS011;6623;52.120;8.660;2023-08-17T05:53:11;0.50;;;0.50;;
13114;SDS011;6623;52.120;8.660;2023-08-17T05:55:36;0.70;;;0.50;;
13114;SDS011;6623;52.120;8.660;2023-08-17T05:58:02;0.63;;;0.60;;
13114;SDS011;6623;52.120;8.660;2023-08-17T06:00:29;0.50;;;0.50;;
13114;SDS011;6623;52.120;8.660;2023-08-17T06:02:54;0.60;;;0.60;;
13114;SDS011;6623;52.120;8.660;2023-08-17T06:05:25;0.60;;;0.60;;
13114;SDS011;6623;52.120;8.660;2023-08-17T06:07:52;0.50;;;0.50;;
13114;SDS011;6623;52.120;8.660;2023-08-17T06:10:17;0.70;;;0.60;;
13114;SDS011;6623;52.120;8.660;2023-08-17T06:12:43;0.50;;;0.50;;
13114;SDS011;6623;52.120;8.660;2023-08-17T06:15:09;0.60;;;0.60;;
13114;SDS011;6623;52.120;8.660;2023-08-17T06:17:35;0.55;;;0.50;;
13114;SDS011;6623;52.120;8.660;2023-08-17T06:20:00;0.70;;;0.57;;
13114;SDS011;6623;52.120;8.660;2023-08-17T06:22:27;0.65;;;0.50;;
13114;SDS011;6623;52.120;8.660;2023-08-17T06:24:53;0.60;;;0.50;;
13114;SDS011;6623;52.120;8.660;2023-08-17T06:27:18;0.60;;;0.60;;
13114;SDS011;6623;52.120;8.660;2023-08-17T06:29:44;0.50;;;0.50;;
13114;SDS011;6623;52.120;8.660;2023-08-17T06:32:10;0.50;;;0.50;;
13114;SDS011;6623;52.120;8.660;2023-08-17T06:34:35;0.50;;;0.50;;
13114;SDS011;6623;52.120;8.660;2023-08-17T06:37:02;0.77;;;0.68;;
13114;SDS011;6623;52.120;8.660;2023-08-17T06:39:28;0.40;;;0.40;;
13114;SDS011;6623;52.120;8.660;2023-08-17T06:41:54;0.50;;;0.50;;
13114;SDS011;6623;52.120;8.660;2023-08-17T06:44:20;0.60;;;0.60;;
13114;SDS011;6623;52.120;8.660;2023-08-17T06:46:46;0.43;;;0.43;;
13114;SDS011;6623;52.120;8.660;2023-08-17T06:49:12;0.60;;;0.50;;
13114;SDS011;6623;52.120;8.660;2023-08-17T06:51:37;0.40;;;0.40;;
13114;SDS011;6623;52.120;8.660;2023-08-17T06:54:04;0.60;;;0.60;;
13114;SDS011;6623;52.120;8.660;2023-08-17T06:56:31;0.50;;;0.50;;
13114;SDS011;6623;52.120;8.660;2023-08-17T06:58:56;0.55;;;0.55;;
13114;SDS011;6623;52.120;8.660;2023-08-17T07:01:22;0.50;;;0.50;;
13114;SDS011;6623;52.120;8.660;2023-08-17T07:03:47;0.47;;;0.47;;
13114;SDS011;6623;52.120;8.660;2023-08-17T07:06:13;0.50;;;0.50;;
13114;SDS011;6623;52.120;8.660;2023-08-17T07:08:38;0.60;;;0.50;;
13114;SDS011;6623;52.120;8.660;2023-08-17T07:11:04;0.55;;;0.50;;
13114;SDS011;6623;52.120;8.660;2023-08-17T07:13:31;0.50;;;0.50;;
13114;SDS011;6623;52.120;8.660;2023-08-17T07:15:56;0.50;;;0.50;;
13114;SDS011;6623;52.120;8.660;2023-08-17T07:18:22;0.60;;;0.60;;
13114;SDS011;6623;52.120;8.660;2023-08-17T07:20:48;0.70;;;0.70;;
13114;SDS011;6623;52.120;8.660;2023-08-17T07:23:14;0.50;;;0.50;;
13114;SDS011;6623;52.120;8.660;2023-08-17T07:25:40;0.43;;;0.43;;
13114;SDS011;6623;52.120;8.660;2023-08-17T07:28:06;0.50;;;0.50;;
13114;SDS011;6623;52.120;8.660;2023-08-17T07:30:31;0.50;;;0.50;;
13114;SDS011;6623;52.120;8.660;2023-08-17T07:32:57;0.50;;;0.50;;
13114;SDS011;6623;52.120;8.660;2023-08-17T07:35:22;0.43;;;0.43;;
13114;SDS011;6623;52.120;8.660;2023-08-17T07:37:48;0.85;;;0.70;;
13114;SDS011;6623;52.120;8.660;2023-08-17T07:40:14;0.60;;;0.60;;
13114;SDS011;6623;52.120;8.660;2023-08-17T07:42:39;0.52;;;0.52;;
13114;SDS011;6623;52.120;8.660;2023-08-17T07:45:05;0.65;;;0.60;;
13114;SDS011;6623;52.120;8.660;2023-08-17T07:47:33;0.68;;;0.68;;
13114;SDS011;6623;52.120;8.660;2023-08-17T07:50:00;0.68;;;0.60;;
13114;SDS011;6623;52.120;8.660;2023-08-17T07:52:26;0.90;;;0.68;;
13114;SDS011;6623;52.120;8.660;2023-08-17T07:54:51;0.90;;;0.50;;
13114;SDS011;6623;52.120;8.660;2023-08-17T07:57:17;0.90;;;0.60;;
13114;SDS011;6623;52.120;8.660;2023-08-17T07:59:42;0.52;;;0.52;;
13114;SDS011;6623;52.120;8.660;2023-08-17T08:02:08;0.70;;;0.55;;
13114;SDS011;6623;52.120;8.660;2023-08-17T08:04:33;0.75;;;0.50;;
13114;SDS011;6623;52.120;8.660;2023-08-17T08:06:59;0.60;;;0.60;;
13114;SDS011;6623;52.120;8.660;2023-08-17T08:09:24;0.60;;;0.60;;
13114;SDS011;6623;52.120;8.660;2023-08-17T08:11:50;0.50;;;0.50;;
13114;SDS011;6623;52.120;8.660;2023-08-17T08:14:16;0.65;;;0.60;;
13114;SDS011;6623;52.120;8.660;2023-08-17T08:16:42;0.50;;;0.50;;
13114;SDS011;6623;52.120;8.660;2023-08-17T08:19:07;0.50;;;0.50;;
13114;SDS011;6623;52.120;8.660;2023-08-17T08:21:33;0.60;;;0.55;;
13114;SDS011;6623;52.120;8.660;2023-08-17T08:23:58;0.73;;;0.50;;
13114;SDS011;6623;52.120;8.660;2023-08-17T08:26:24;0.73;;;0.70;;
13114;SDS011;6623;52.120;8.660;2023-08-17T08:28:49;0.50;;;0.50;;
13114;SDS011;6623;52.120;8.660;2023-08-17T08:31:15;0.50;;;0.50;;
13114;SDS011;6623;52.120;8.660;2023-08-17T08:33:40;0.40;;;0.40;;
13114;SDS011;6623;52.120;8.660;2023-08-17T08:36:06;0.60;;;0.60;;
13114;SDS011;6623;52.120;8.660;2023-08-17T08:38:31;0.45;;;0.45;;
13114;SDS011;6623;52.120;8.660;2023-08-17T08:40:57;0.75;;;0.60;;
13114;SDS011;6623;52.120;8.660;2023-08-17T08:43:23;0.68;;;0.68;;
13114;SDS011;6623;52.120;8.660;2023-08-17T08:45:50;0.50;;;0.50;;
13114;SDS011;6623;52.120;8.660;2023-08-17T08:48:17;0.60;;;0.60;;
13114;SDS011;6623;52.120;8.660;2023-08-17T08:50:44;0.50;;;0.50;;
13114;SDS011;6623;52.120;8.660;2023-08-17T08:53:13;0.70;;;0.60;;
13114;SDS011;6623;52.120;8.660;2023-08-17T08:55:41;0.40;;;0.40;;
13114;SDS011;6623;52.120;8.660;2023-08-17T08:58:15;0.52;;;0.52;;
13114;SDS011;6623;52.120;8.660;2023-08-17T09:00:41;0.57;;;0.57;;
13114;SDS011;6623;52.120;8.660;2023-08-17T09:03:10;0.60;;;0.55;;
13114;SDS011;6623;52.120;8.660;2023-08-17T09:05:36;0.45;;;0.45;;
13114;SDS011;6623;52.120;8.660;2023-08-17T09:08:03;0.40;;;0.40;;
13114;SDS011;6623;52.120;8.660;2023-08-17T09:10:29;0.70;;;0.70;;
13114;SDS011;6623;52.120;8.660;2023-08-17T09:12:55;0.50;;;0.50;;
13114;SDS011;6623;52.120;8.660;2023-08-17T09:15:20;0.50;;;0.50;;
13114;SDS011;6623;52.120;8.660;2023-08-17T09:17:46;0.50;;;0.50;;
13114;SDS011;6623;52.120;8.660;2023-08-17T09:20:33;0.50;;;0.50;;
13114;SDS011;6623;52.120;8.660;2023-08-17T09:23:16;0.60;;;0.50;;
13114;SDS011;6623;52.120;8.660;2023-08-17T09:25:44;0.50;;;0.50;;
13114;SDS011;6623;52.120;8.660;2023-08-17T09:28:14;0.63;;;0.50;;
13114;SDS011;6623;52.120;8.660;2023-08-17T09:30:51;0.75;;;0.50;;
13114;SDS011;6623;52.120;8.660;2023-08-17T09:33:23;0.50;;;0.50;;
13114;SDS011;6623;52.120;8.660;2023-08-17T09:35:51;0.40;;;0.40;;
13114;SDS011;6623;52.120;8.660;2023-08-17T09:38:20;0.43;;;0.43;;
13114;SDS011;6623;52.120;8.660;2023-08-17T09:40:46;0.40;;;0.40;;
13114;SDS011;6623;52.120;8.660;2023-08-17T09:43:13;0.60;;;0.60;;
13114;SDS011;6623;52.120;8.660;2023-08-17T09:45:39;0.65;;;0.57;;
13114;SDS011;6623;52.120;8.660;2023-08-17T09:48:06;0.40;;;0.40;;
13114;SDS011;6623;52.120;8.660;2023-08-17T09:50:33;0.73;;;0.70;;
13114;SDS011;6623;52.120;8.660;2023-08-17T09:52:58;0.70;;;0.60;;
13114;SDS011;6623;52.120;8.660;2023-08-17T09:55:24;0.63;;;0.55;;
13114;SDS011;6623;52.120;8.660;2023-08-17T09:57:50;0.43;;;0.40;;
13114;SDS011;6623;52.120;8.660;2023-08-17T10:00:18;0.50;;;0.50;;
13114;SDS011;6623;52.120;8.660;2023-08-17T10:02:44;0.57;;;0.47;;
13114;SDS011;6623;52.120;8.660;2023-08-17T10:05:14;0.40;;;0.40;;
13114;SDS011;6623;52.120;8.660;2023-08-17T10:07:45;0.50;;;0.50;;
13114;SDS011;6623;52.120;8.660;2023-08-17T10:10:15;0.68;;;0.52;;
13114;SDS011;6623;52.120;8.660;2023-08-17T10:12:53;0.50;;;0.50;;
13114;SDS011;6623;52.120;8.660;2023-08-17T10:15:29;0.50;;;0.50;;
13114;SDS011;6623;52.120;8.660;2023-08-17T10:21:06;0.80;;;0.50;;
13114;SDS011;6623;52.120;8.660;2023-08-17T10:23:35;0.43;;;0.43;;
13114;SDS011;6623;52.120;8.660;2023-08-17T10:26:02;0.50;;;0.50;;
13114;SDS011;6623;52.120;8.660;2023-08-17T10:28:28;0.60;;;0.50;;
13114;SDS011;6623;52.120;8.660;2023-08-17T10:30:55;0.50;;;0.50;;
13114;SDS011;6623;52.120;8.660;2023-08-17T10:33:22;0.40;;;0.40;;
13114;SDS011;6623;52.120;8.660;2023-08-17T10:35:49;0.50;;;0.50;;
13114;SDS011;6623;52.120;8.660;2023-08-17T10:38:15;0.63;;;0.50;;
13114;SDS011;6623;52.120;8.660;2023-08-17T10:40:42;0.50;;;0.50;;
13114;SDS011;6623;52.120;8.660;2023-08-17T10:43:08;0.50;;;0.50;;
13114;SDS011;6623;52.120;8.660;2023-08-17T10:45:34;0.85;;;0.52;;
13114;SDS011;6623;52.120;8.660;2023-08-17T10:50:37;0.47;;;0.47;;
13114;SDS011;6623;52.120;8.660;2023-08-17T10:53:04;0.60;;;0.60;;
13114;SDS011;6623;52.120;8.660;2023-08-17T10:58:02;0.40;;;0.40;;
13114;SDS011;6623;52.120;8.660;2023-08-17T11:00:31;0.35;;;0.35;;
13114;SDS011;6623;52.120;8.660;2023-08-17T11:03:00;0.50;;;0.50;;
13114;SDS011;6623;52.120;8.660;2023-08-17T11:05:38;0.52;;;0.50;;
13114;SDS011;6623;52.120;8.660;2023-08-17T11:08:34;0.52;;;0.52;;
13114;SDS011;6623;52.120;8.660;2023-08-17T11:13:37;0.43;;;0.40;;
13114;SDS011;6623;52.120;8.660;2023-08-17T11:16:04;0.57;;;0.57;;
13114;SDS011;6623;52.120;8.660;2023-08-17T11:18:31;0.40;;;0.40;;
13114;SDS011;6623;52.120;8.660;2023-08-17T11:20:57;0.50;;;0.50;;
13114;SDS011;6623;52.120;8.660;2023-08-17T11:23:23;0.50;;;0.50;;
13114;SDS011;6623;52.120;8.660;2023-08-17T11:25:51;0.40;;;0.40;;
13114;SDS011;6623;52.120;8.660;2023-08-17T11:28:17;0.50;;;0.50;;
13114;SDS011;6623;52.120;8.660;2023-08-17T11:30:43;0.30;;;0.30;;
13114;SDS011;6623;52.120;8.660;2023-08-17T11:33:09;0.50;;;0.50;;
13114;SDS011;6623;52.120;8.660;2023-08-17T11:35:35;1.55;;;0.60;;
13114;SDS011;6623;52.120;8.660;2023-08-17T11:38:01;0.50;;;0.50;;
13114;SDS011;6623;52.120;8.660;2023-08-17T11:40:31;0.95;;;0.65;;
13114;SDS011;6623;52.120;8.660;2023-08-17T11:42:57;0.50;;;0.47;;
13114;SDS011;6623;52.120;8.660;2023-08-17T11:45:23;0.50;;;0.50;;
13114;SDS011;6623;52.120;8.660;2023-08-17T11:47:49;0.40;;;0.40;;
13114;SDS011;6623;52.120;8.660;2023-08-17T11:50:14;0.43;;;0.43;;
13114;SDS011;6623;52.120;8.660;2023-08-17T11:52:40;0.77;;;0.50;;
13114;SDS011;6623;52.120;8.660;2023-08-17T11:55:06;1.65;;;0.55;;
13114;SDS011;6623;52.120;8.660;2023-08-17T11:57:36;0.52;;;0.50;;
13114;SDS011;6623;52.120;8.660;2023-08-17T12:00:03;0.50;;;0.40;;
13114;SDS011;6623;52.120;8.660;2023-08-17T12:02:39;0.55;;;0.50;;
13114;SDS011;6623;52.120;8.660;2023-08-17T12:05:07;0.30;;;0.30;;
13114;SDS011;6623;52.120;8.660;2023-08-17T12:07:34;1.52;;;0.70;;
13114;SDS011;6623;52.120;8.660;2023-08-17T12:10:02;0.40;;;0.40;;
13114;SDS011;6623;52.120;8.660;2023-08-17T12:12:29;0.60;;;0.50;;
13114;SDS011;6623;52.120;8.660;2023-08-17T12:14:55;0.60;;;0.60;;
13114;SDS011;6623;52.120;8.660;2023-08-17T12:17:22;0.30;;;0.30;;
13114;SDS011;6623;52.120;8.660;2023-08-17T12:19:53;0.55;;;0.55;;
13114;SDS011;6623;52.120;8.660;2023-08-17T12:22:22;1.00;;;0.60;;
13114;SDS011;6623;52.120;8.660;2023-08-17T12:24:49;0.47;;;0.47;;
13114;SDS011;6623;52.120;8.660;2023-08-17T12:27:15;0.40;;;0.40;;
13114;SDS011;6623;52.120;8.660;2023-08-17T12:29:49;0.50;;;0.50;;
13114;SDS011;6623;52.120;8.660;2023-08-17T12:32:17;0.50;;;0.50;;
13114;SDS011;6623;52.120;8.660;2023-08-17T12:34:45;0.47;;;0.47;;
13114;SDS011;6623;52.120;8.660;2023-08-17T12:37:11;0.90;;;0.47;;
13114;SDS011;6623;52.120;8.660;2023-08-17T12:39:37;0.40;;;0.40;;
13114;SDS011;6623;52.120;8.660;2023-08-17T12:42:03;0.77;;;0.70;;
13114;SDS011;6623;52.120;8.660;2023-08-17T12:44:29;0.40;;;0.40;;
13114;SDS011;6623;52.120;8.660;2023-08-17T12:46:55;0.50;;;0.50;;
13114;SDS011;6623;52.120;8.660;2023-08-17T12:49:21;0.60;;;0.60;;
13114;SDS011;6623;52.120;8.660;2023-08-17T12:51:48;0.60;;;0.55;;
13114;SDS011;6623;52.120;8.660;2023-08-17T12:54:13;0.90;;;0.68;;
13114;SDS011;6623;52.120;8.660;2023-08-17T12:56:39;0.60;;;0.60;;
13114;SDS011;6623;52.120;8.660;2023-08-17T12:59:05;0.70;;;0.70;;
13114;SDS011;6623;52.120;8.660;2023-08-17T13:01:30;0.50;;;0.50;;
13114;SDS011;6623;52.120;8.660;2023-08-17T13:03:56;0.50;;;0.50;;
13114;SDS011;6623;52.120;8.660;2023-08-17T13:06:21;0.60;;;0.60;;
13114;SDS011;6623;52.120;8.660;2023-08-17T13:08:47;0.55;;;0.45;;
13114;SDS011;6623;52.120;8.660;2023-08-17T13:11:12;0.75;;;0.65;;
13114;SDS011;6623;52.120;8.660;2023-08-17T13:13:38;0.50;;;0.50;;
13114;SDS011;6623;52.120;8.660;2023-08-17T13:16:03;0.60;;;0.40;;
13114;SDS011;6623;52.120;8.660;2023-08-17T13:18:29;0.60;;;0.60;;
13114;SDS011;6623;52.120;8.660;2023-08-17T13:20:55;0.60;;;0.60;;
13114;SDS011;6623;52.120;8.660;2023-08-17T13:23:20;0.40;;;0.40;;
13114;SDS011;6623;52.120;8.660;2023-08-17T13:25:46;0.80;;;0.60;;
13114;SDS011;6623;52.120;8.660;2023-08-17T13:28:11;0.55;;;0.50;;
13114;SDS011;6623;52.120;8.660;2023-08-17T13:30:40;0.77;;;0.70;;
13114;SDS011;6623;52.120;8.660;2023-08-17T13:33:05;0.55;;;0.55;;
13114;SDS011;6623;52.120;8.660;2023-08-17T13:35:31;0.68;;;0.60;;
13114;SDS011;6623;52.120;8.660;2023-08-17T13:37:58;0.60;;;0.60;;
13114;SDS011;6623;52.120;8.660;2023-08-17T13:40:23;0.82;;;0.65;;
13114;SDS011;6623;52.120;8.660;2023-08-17T13:42:49;0.40;;;0.40;;
13114;SDS011;6623;52.120;8.660;2023-08-17T13:45:15;0.60;;;0.60;;
13114;SDS011;6623;52.120;8.660;2023-08-17T13:47:41;0.60;;;0.50;;
13114;SDS011;6623;52.120;8.660;2023-08-17T13:50:06;0.50;;;0.50;;
13114;SDS011;6623;52.120;8.660;2023-08-17T13:52:32;0.60;;;0.60;;
13114;SDS011;6623;52.120;8.660;2023-08-17T13:54:57;0.60;;;0.60;;
13114;SDS011;6623;52.120;8.660;2023-08-17T13:57:23;0.50;;;0.50;;
13114;SDS011;6623;52.120;8.660;2023-08-17T13:59:49;0.60;;;0.60;;
13114;SDS011;6623;52.120;8.660;2023-08-17T14:02:14;0.80;;;0.70;;
13114;SDS011;6623;52.120;8.660;2023-08-17T14:04:40;0.55;;;0.55;;
13114;SDS011;6623;52.120;8.660;2023-08-17T14:07:05;2.10;;;0.63;;
13114;SDS011;6623;52.120;8.660;2023-08-17T14:09:31;0.85;;;0.80;;
13114;SDS011;6623;52.120;8.660;2023-08-17T14:11:57;0.60;;;0.60;;
13114;SDS011;6623;52.120;8.660;2023-08-17T14:14:22;0.85;;;0.60;;
13114;SDS011;6623;52.120;8.660;2023-08-17T14:16:48;0.50;;;0.50;;
13114;SDS011;6623;52.120;8.660;2023-08-17T14:19:14;0.40;;;0.40;;
13114;SDS011;6623;52.120;8.660;2023-08-17T14:21:39;0.60;;;0.60;;
13114;SDS011;6623;52.120;8.660;2023-08-17T14:24:05;0.98;;;0.57;;
13114;SDS011;6623;52.120;8.660;2023-08-17T14:26:33;0.60;;;0.60;;
13114;SDS011;6623;52.120;8.660;2023-08-17T14:28:59;0.75;;;0.63;;
13114;SDS011;6623;52.120;8.660;2023-08-17T14:31:24;2.60;;;0.68;;
13114;SDS011;6623;52.120;8.660;2023-08-17T14:33:50;1.33;;;0.80;;
13114;SDS011;6623;52.120;8.660;2023-08-17T14:36:16;1.10;;;0.90;;
13114;SDS011;6623;52.120;8.660;2023-08-17T14:38:42;1.73;;;1.10;;
13114;SDS011;6623;52.120;8.660;2023-08-17T14:41:07;2.15;;;1.27;;
13114;SDS011;6623;52.120;8.660;2023-08-17T14:43:34;2.95;;;1.38;;
13114;SDS011;6623;52.120;8.660;2023-08-17T14:45:59;2.63;;;1.20;;
13114;SDS011;6623;52.120;8.660;2023-08-17T14:48:25;2.90;;;1.45;;
13114;SDS011;6623;52.120;8.660;2023-08-17T14:50:51;2.80;;;1.40;;
13114;SDS011;6623;52.120;8.660;2023-08-17T14:53:17;4.07;;;1.63;;
13114;SDS011;6623;52.120;8.660;2023-08-17T14:55:42;5.25;;;1.95;;
13114;SDS011;6623;52.120;8.660;2023-08-17T14:58:08;3.60;;;1.60;;
13114;SDS011;6623;52.120;8.660;2023-08-17T15:00:34;2.58;;;1.52;;
13114;SDS011;6623;52.120;8.660;2023-08-17T15:03:06;4.47;;;1.50;;
13114;SDS011;6623;52.120;8.660;2023-08-17T15:05:31;4.63;;;1.67;;
13114;SDS011;6623;52.120;8.660;2023-08-17T15:08:00;2.47;;;1.50;;
13114;SDS011;6623;52.120;8.660;2023-08-17T15:10:26;3.22;;;1.80;;